Newkirk, Iowa
Current Conditions -  °F | °C
As of 6:55 PM on Saturday 20 Dec 2014 (Local Time) from KSHL Reporting Station
Haze Haze  
Wind Chill: 20°   Ceiling: 500
Heat Index: NA   Visibility: 5mi
Dew Point: 32°   Wind: 14mph
Humidity: NA   Direction: 170°S
Pressure: 30.03"   Gusts: NA
Location:  43.0843°N, 95.9196°W
Report Text: KSHL 210055Z AUTO 17012KT 5SM BR OVC005 M01/M00 A3003 RMK AO2
Loading
Personal Weather Stations






























Interactive Weather Map New forecast layout! Learn more

10-Day Weather Forecast

Advertisements
Track Severe Weather on mobile